Time;durP1;ratioP1;P1;durP2;ratioP2;P2;SDS_P1;SDS_P2;PMS_P1;PMS_P2;Temp;Humidity;BMP_temperature;BMP_pressure;BME280_temperature;BME280_humidity;BME280_pressure;Samples;Min_cycle;Max_cycle;Signal;HPM_P1;HPM_P2
2022/09/21 00:00:24;;;;;;;;;;;;;;;19.70;57.61;101942.69;5035210;28;4181;-67
2022/09/21 00:02:50;;;;;;;;;;;;;;;19.65;57.78;101939.56;5035238;28;4157;-67
2022/09/21 00:05:16;;;;;;;;;;;;;;;19.71;57.73;101935.59;5034650;28;4167;-67
2022/09/21 00:07:43;;;;;;;;;;;;;;;19.75;57.69;101944.50;5037551;28;4221;-67
2022/09/21 00:10:09;;;;;;;;;;;;;;;19.72;57.61;101940.72;5037991;28;4259;-67
2022/09/21 00:12:37;;;;;;;;;;;;;;;19.72;57.63;101937.84;5038649;28;4246;-67
2022/09/21 00:15:05;;;;;;;;;;;;;;;19.70;57.73;101939.84;5037593;28;4240;-67
2022/09/21 00:17:31;;;;;;;;;;;;;;;19.73;57.84;101944.38;5038349;28;4136;-67
2022/09/21 00:20:00;;;;;;;;;;;;;;;19.70;57.69;101949.22;5036004;28;4210;-67
2022/09/21 00:22:26;;;;;;;;;;;;;;;19.70;57.80;101948.44;5038275;28;4158;-67
2022/09/21 00:24:52;;;;;;;;;;;;;;;19.68;57.68;101946.19;5036539;28;5281;-67
2022/09/21 00:27:19;;;;;;;;;;;;;;;19.71;57.77;101941.34;5037702;28;4261;-67
2022/09/21 00:29:45;;;;;;;;;;;;;;;19.69;57.63;101946.97;5034974;28;4256;-67
2022/09/21 00:32:11;;;;;;;;;;;;;;;19.67;57.65;101950.41;5038702;28;5403;-67
2022/09/21 00:34:38;;;;;;;;;;;;;;;19.67;57.81;101948.28;5037426;28;5313;-67
2022/09/21 00:37:04;;;;;;;;;;;;;;;19.67;57.70;101948.28;5036814;28;4158;-67
2022/09/21 00:39:30;;;;;;;;;;;;;;;19.67;57.64;101948.28;5038737;28;4268;-68
2022/09/21 00:41:57;;;;;;;;;;;;;;;19.72;57.58;101954.34;5039710;28;4224;-68
2022/09/21 00:44:24;;;;;;;;;;;;;;;19.66;57.23;101955.41;5036864;28;4152;-68
2022/09/21 00:46:51;;;;;;;;;;;;;;;19.65;57.20;101958.91;5039157;28;4138;-68
2022/09/21 00:49:17;;;;;;;;;;;;;;;19.64;57.03;101961.03;5040972;28;4129;-68
2022/09/21 00:51:43;;;;;;;;;;;;;;;19.63;57.00;101958.75;5050166;28;5465;-68
2022/09/21 00:54:15;;;;;;;;;;;;;;;19.61;56.56;101955.78;5040161;28;4129;-68
2022/09/21 00:56:41;;;;;;;;;;;;;;;19.60;56.35;101957.88;5040627;28;4144;-68
2022/09/21 00:59:07;;;;;;;;;;;;;;;19.60;56.14;101960.75;5038150;28;4396;-68
2022/09/21 01:01:35;;;;;;;;;;;;;;;19.60;56.07;101955.00;5038032;28;4146;-69
2022/09/21 01:04:01;;;;;;;;;;;;;;;19.60;56.09;101960.00;5037686;28;4130;-68
2022/09/21 01:06:28;;;;;;;;;;;;;;;19.60;56.05;101960.75;5040225;28;5315;-68
2022/09/21 01:08:54;;;;;;;;;;;;;;;19.58;55.94;101963.47;5040352;28;4187;-68
2022/09/21 01:11:28;;;;;;;;;;;;;;;19.57;55.67;101961.25;5051766;28;4396;-68
2022/09/21 01:14:04;;;;;;;;;;;;;;;19.55;55.47;101964.72;5054857;28;5227;-68
2022/09/21 01:16:43;;;;;;;;;;;;;;;19.54;55.58;101950.97;5019702;28;4152;-68
2022/09/21 01:19:28;;;;;;;;;;;;;;;19.55;55.21;101952.47;5041198;28;5649;-68
2022/09/21 01:22:00;;;;;;;;;;;;;;;19.53;55.00;101955.97;5036934;28;3979;-68
2022/09/21 01:24:35;;;;;;;;;;;;;;;19.53;54.71;101960.97;5047781;28;4140;-68
2022/09/21 01:27:16;;;;;;;;;;;;;;;19.52;54.65;101965.97;5054012;28;4133;-68
2022/09/21 01:29:44;;;;;;;;;;;;;;;19.52;54.79;101965.22;5034897;28;5977;-68
2022/09/21 01:32:11;;;;;;;;;;;;;;;19.50;54.34;101962.19;5033614;28;4156;-68
2022/09/21 01:34:41;;;;;;;;;;;;;;;19.52;54.78;101968.09;5044337;28;5313;-68
2022/09/21 01:37:10;;;;;;;;;;;;;;;19.51;54.61;101969.44;5018234;28;4267;-68
2022/09/21 01:39:36;;;;;;;;;;;;;;;19.50;54.48;101968.69;5020113;28;4154;-68
2022/09/21 01:42:03;;;;;;;;;;;;;;;19.47;54.34;101969.94;5050603;28;5230;-68
2022/09/21 01:44:32;;;;;;;;;;;;;;;19.46;53.96;101974.16;5017973;28;5211;-67
2022/09/21 01:46:59;;;;;;;;;;;;;;;19.46;53.80;101979.91;5018915;28;4121;-68
2022/09/21 01:49:27;;;;;;;;;;;;;;;19.45;53.52;101981.28;5051975;28;5429;-68
2022/09/21 01:51:57;;;;;;;;;;;;;;;19.45;53.75;101975.53;5045756;28;4061;-68
2022/09/21 01:54:26;;;;;;;;;;;;;;;19.45;53.82;101975.53;5050664;28;4074;-68
2022/09/21 01:57:06;;;;;;;;;;;;;;;19.44;53.63;101976.91;5046970;28;4182;-68
2022/09/21 01:59:41;;;;;;;;;;;;;;;19.43;53.52;101978.28;5053470;28;4228;-68
2022/09/21 02:02:09;;;;;;;;;;;;;;;19.43;53.39;101969.66;5036694;28;4185;-68
2022/09/21 02:04:37;;;;;;;;;;;;;;;19.43;53.40;101975.41;5035766;28;4182;-68
2022/09/21 02:07:04;;;;;;;;;;;;;;;19.43;53.29;101972.53;5053523;28;4867;-68
2022/09/21 02:09:30;;;;;;;;;;;;;;;19.41;53.33;101978.88;5052890;28;4271;-68
2022/09/21 02:11:57;;;;;;;;;;;;;;;19.42;53.27;101973.88;5037569;28;4182;-68
2022/09/21 02:14:23;;;;;;;;;;;;;;;19.40;53.14;101977.38;5040177;28;5452;-68
2022/09/21 02:17:10;;;;;;;;;;;;;;;19.40;53.27;101982.34;5050361;28;4150;-68
2022/09/21 02:19:40;;;;;;;;;;;;;;;19.39;53.04;101983.75;5023336;28;5075;-69
2022/09/21 02:22:09;;;;;;;;;;;;;;;19.39;52.90;101984.47;5032830;28;4164;-68
2022/09/21 02:24:42;;;;;;;;;;;;;;;19.39;52.81;101983.75;5048567;28;4214;-68
2022/09/21 02:27:23;;;;;;;;;;;;;;;19.36;52.87;101979.22;5017242;28;4252;-68
2022/09/21 02:30:00;;;;;;;;;;;;;;;19.36;52.92;101982.09;5022399;28;4173;-68
2022/09/21 02:32:42;;;;;;;;;;;;;;;19.36;52.85;101990.72;5019188;28;4321;-68
2022/09/21 02:35:14;;;;;;;;;;;;;;;19.35;52.60;101983.44;5018361;28;4201;-68
2022/09/21 02:37:45;;;;;;;;;;;;;;;19.32;52.67;101982.56;5012727;28;4330;-68
2022/09/21 02:40:16;;;;;;;;;;;;;;;19.32;52.50;101984.69;5023316;28;5458;-68
2022/09/21 02:42:43;;;;;;;;;;;;;;;19.33;52.62;101989.06;5032650;28;4057;-68
2022/09/21 02:45:13;;;;;;;;;;;;;;;19.32;52.48;101978.94;5015779;28;4259;-68
2022/09/21 02:47:45;;;;;;;;;;;;;;;19.32;52.54;101981.81;5048028;28;4089;-68
2022/09/21 02:50:13;;;;;;;;;;;;;;;19.32;52.47;101987.56;5018604;28;4145;-68
2022/09/21 02:52:40;;;;;;;;;;;;;;;19.30;52.38;101990.28;5049301;28;4307;-68
2022/09/21 02:55:07;;;;;;;;;;;;;;;19.28;52.29;101990.16;5049614;28;4292;-68
2022/09/21 02:57:33;;;;;;;;;;;;;;;19.29;52.26;102006.78;5017497;28;4238;-68
2022/09/21 03:00:00;;;;;;;;;;;;;;;19.27;52.25;101998.03;5019146;28;4197;-68
2022/09/21 03:02:36;;;;;;;;;;;;;;;19.27;52.04;101991.53;5038624;28;4350;-68
2022/09/21 03:05:03;;;;;;;;;;;;;;;19.25;52.07;102001.50;5038984;28;5426;-68
2022/09/21 03:07:29;;;;;;;;;;;;;;;19.25;51.93;102003.63;5037232;28;3965;-68
2022/09/21 03:09:55;;;;;;;;;;;;;;;19.25;51.85;101997.88;5038467;28;4116;-68
2022/09/21 03:12:22;;;;;;;;;;;;;;;19.23;51.66;102006.34;5036948;28;5273;-68
2022/09/21 03:14:50;;;;;;;;;;;;;;;19.24;51.66;102011.50;5037335;28;4094;-68
2022/09/21 03:17:16;;;;;;;;;;;;;;;19.22;51.65;102008.47;5038752;28;5262;-68
2022/09/21 03:19:42;;;;;;;;;;;;;;;19.21;51.73;102001.22;5035984;28;4315;-68
2022/09/21 03:22:09;;;;;;;;;;;;;;;19.23;51.59;102004.22;5037711;28;4286;-68
2022/09/21 03:24:44;;;;;;;;;;;;;;;19.20;51.66;102014.06;5036286;28;4169;-68
2022/09/21 03:27:10;;;;;;;;;;;;;;;19.19;51.62;102003.94;5035835;28;4221;-68
2022/09/21 03:29:37;;;;;;;;;;;;;;;19.19;51.65;102009.69;5038554;28;4167;-68
2022/09/21 03:32:03;;;;;;;;;;;;;;;19.19;51.58;102009.69;5035068;28;4350;-68
2022/09/21 03:34:33;;;;;;;;;;;;;;;19.19;51.67;102011.81;5033306;28;4219;-68
2022/09/21 03:37:00;;;;;;;;;;;;;;;19.18;51.56;102010.31;5038845;28;4231;-69
2022/09/21 03:39:26;;;;;;;;;;;;;;;19.18;51.41;102007.44;5037614;28;4092;-68
2022/09/21 03:41:55;;;;;;;;;;;;;;;19.18;51.41;102008.19;5034758;28;4162;-68
2022/09/21 03:44:22;;;;;;;;;;;;;;;19.15;51.17;102009.41;5036689;28;5160;-68
2022/09/21 03:46:49;;;;;;;;;;;;;;;19.15;51.43;102018.03;5035533;28;4212;-68
2022/09/21 03:49:16;;;;;;;;;;;;;;;19.16;51.54;102018.78;5035670;28;5239;-68
2022/09/21 03:51:42;;;;;;;;;;;;;;;19.12;51.40;102012.75;5038364;28;5208;-68
2022/09/21 03:54:08;;;;;;;;;;;;;;;19.14;51.43;102016.50;5036940;28;5224;-68
2022/09/21 03:56:35;;;;;;;;;;;;;;;19.12;51.64;102010.63;5037540;28;4079;-68
2022/09/21 03:59:01;;;;;;;;;;;;;;;19.12;51.44;102013.50;5036098;28;4132;-67
2022/09/21 04:01:28;;;;;;;;;;;;;;;19.12;51.35;102018.50;5034278;28;4144;-68
2022/09/21 04:03:54;;;;;;;;;;;;;;;19.10;51.14;102019.09;5034524;28;4168;-68
2022/09/21 04:06:20;;;;;;;;;;;;;;;19.12;51.28;102016.38;5036648;28;4160;-68
2022/09/21 04:08:47;;;;;;;;;;;;;;;19.11;51.30;102014.88;5037191;28;4178;-68
2022/09/21 04:11:14;;;;;;;;;;;;;;;19.11;51.27;102019.88;5036602;28;4250;-68
2022/09/21 04:13:41;;;;;;;;;;;;;;;19.10;51.21;102024.09;5038218;28;4223;-68
2022/09/21 04:16:08;;;;;;;;;;;;;;;19.11;51.12;102026.34;5034831;28;4191;-68
2022/09/21 04:18:36;;;;;;;;;;;;;;;19.10;51.08;102030.56;5040291;28;4054;-67
2022/09/21 04:21:02;;;;;;;;;;;;;;;19.07;51.23;102031.81;5040210;28;4216;-67
2022/09/21 04:23:28;;;;;;;;;;;;;;;19.07;50.99;102019.56;5041850;28;4249;-68
2022/09/21 04:25:55;;;;;;;;;;;;;;;19.07;50.95;102025.31;5041025;28;4130;-68
2022/09/21 04:28:22;;;;;;;;;;;;;;;19.05;50.98;102034.53;5038031;28;4218;-68
2022/09/21 04:30:52;;;;;;;;;;;;;;;19.04;50.95;102033.03;5041097;28;4236;-68
2022/09/21 04:33:18;;;;;;;;;;;;;;;19.06;51.01;102036.06;5037898;28;4195;-68
2022/09/21 04:35:45;;;;;;;;;;;;;;;19.03;50.84;102034.38;5016406;28;5302;-68
2022/09/21 04:38:12;;;;;;;;;;;;;;;19.04;50.88;102038.78;5019540;28;5079;-68
2022/09/21 04:40:38;;;;;;;;;;;;;;;19.01;50.85;102029.28;5016637;28;4352;-68
2022/09/21 04:43:05;;;;;;;;;;;;;;;19.02;50.74;102030.03;5020748;28;4187;-68
2022/09/21 04:45:31;;;;;;;;;;;;;;;19.03;50.47;102028.66;5020580;28;4162;-67
2022/09/21 04:47:57;;;;;;;;;;;;;;;19.00;50.79;102035.63;5020049;28;4092;-67
2022/09/21 04:50:24;;;;;;;;;;;;;;;19.01;50.63;102022.75;5019907;28;4182;-67
2022/09/21 04:53:01;;;;;;;;;;;;;;;19.00;50.75;102038.50;5019270;28;5231;-67
2022/09/21 04:55:28;;;;;;;;;;;;;;;19.00;50.56;102035.63;5016558;28;5470;-67
2022/09/21 04:57:54;;;;;;;;;;;;;;;18.99;50.49;102034.13;5018403;28;4151;-67
2022/09/21 05:00:20;;;;;;;;;;;;;;;18.99;50.52;102039.88;5020270;28;4093;-67
2022/09/21 05:02:47;;;;;;;;;;;;;;;18.98;50.42;102036.22;5019725;28;4317;-67
2022/09/21 05:05:13;;;;;;;;;;;;;;;18.98;50.40;102041.22;5019988;28;4207;-67
2022/09/21 05:07:39;;;;;;;;;;;;;;;18.96;50.42;102038.94;5019344;28;4220;-67
2022/09/21 05:10:07;;;;;;;;;;;;;;;18.98;50.34;102041.22;5017436;28;4152;-66
2022/09/21 05:12:33;;;;;;;;;;;;;;;18.97;50.54;102042.59;5020768;28;4233;-67
2022/09/21 05:15:05;;;;;;;;;;;;;;;18.98;50.39;102041.97;5020132;28;6187;-67
2022/09/21 05:17:31;;;;;;;;;;;;;;;18.97;50.37;102042.59;5020340;28;4151;-68
2022/09/21 05:19:57;;;;;;;;;;;;;;;18.94;50.40;102052.41;5020375;28;5393;-67
2022/09/21 05:22:24;;;;;;;;;;;;;;;18.95;50.33;102053.94;5019615;28;5452;-67
2022/09/21 05:24:50;;;;;;;;;;;;;;;18.94;50.42;102047.41;5020648;28;5357;-67
2022/09/21 05:27:16;;;;;;;;;;;;;;;18.93;50.38;102050.91;5017964;28;4217;-67
2022/09/21 05:29:43;;;;;;;;;;;;;;;18.93;50.29;102053.78;5019594;28;5089;-67
2022/09/21 05:32:09;;;;;;;;;;;;;;;18.94;50.32;102058.16;5018713;28;4253;-68
2022/09/21 05:34:44;;;;;;;;;;;;;;;18.93;50.31;102062.38;5020853;28;4405;-67
2022/09/21 05:37:14;;;;;;;;;;;;;;;18.92;50.30;102073.13;5047439;28;4235;-67
2022/09/21 05:39:40;;;;;;;;;;;;;;;18.93;50.20;102079.59;5048741;28;4222;-68
2022/09/21 05:42:07;;;;;;;;;;;;;;;18.92;50.31;102078.09;5020240;28;4159;-67
2022/09/21 05:44:33;;;;;;;;;;;;;;;18.90;50.26;102075.06;5052929;28;4144;-67
2022/09/21 05:47:04;;;;;;;;;;;;;;;18.90;50.34;102083.69;5017141;28;4214;-67
2022/09/21 05:49:45;;;;;;;;;;;;;;;18.91;50.32;102077.34;5051926;28;4122;-67
2022/09/21 05:52:15;;;;;;;;;;;;;;;18.90;50.40;102080.81;5050959;28;4174;-67
2022/09/21 05:54:44;;;;;;;;;;;;;;;18.90;50.28;102086.53;5020807;28;4144;-67
2022/09/21 05:57:15;;;;;;;;;;;;;;;18.92;50.53;102089.56;5016695;28;4212;-68
2022/09/21 05:59:57;;;;;;;;;;;;;;;18.91;50.55;102082.34;5049457;28;4429;-67
2022/09/21 06:02:23;;;;;;;;;;;;;;;18.90;50.69;102080.81;5050451;28;4333;-67
2022/09/21 06:04:50;;;;;;;;;;;;;;;18.91;50.77;102085.94;5018926;28;4224;-67
2022/09/21 06:07:16;;;;;;;;;;;;;;;18.91;50.89;102085.19;5024485;28;4201;-67
2022/09/21 06:09:43;;;;;;;;;;;;;;;18.91;50.98;102083.09;5019142;28;4159;-67
2022/09/21 06:12:12;;;;;;;;;;;;;;;18.91;50.99;102085.19;5018973;28;4227;-67
2022/09/21 06:14:38;;;;;;;;;;;;;;;18.90;51.02;102083.69;5019267;28;4229;-67
2022/09/21 06:17:05;;;;;;;;;;;;;;;18.90;51.01;102080.81;5018795;28;5196;-67
2022/09/21 06:19:31;;;;;;;;;;;;;;;18.91;51.17;102088.06;5017051;28;6337;-67
2022/09/21 06:21:57;;;;;;;;;;;;;;;18.92;51.01;102081.72;5019394;28;4421;-67
2022/09/21 06:24:24;;;;;;;;;;;;;;;18.92;51.25;102089.56;5018734;28;5431;-67
2022/09/21 06:26:50;;;;;;;;;;;;;;;18.92;51.22;102086.69;5020066;28;4249;-67
2022/09/21 06:29:22;;;;;;;;;;;;;;;18.92;51.44;102089.56;5014149;28;4220;-67
2022/09/21 06:31:49;;;;;;;;;;;;;;;18.90;51.43;102086.53;5018552;28;4229;-67
2022/09/21 06:34:16;;;;;;;;;;;;;;;18.90;51.57;102092.28;5032529;28;4191;-67
2022/09/21 06:36:44;;;;;;;;;;;;;;;18.91;51.69;102085.19;5019410;28;5265;-67
2022/09/21 06:39:10;;;;;;;;;;;;;;;18.91;51.67;102088.06;5018150;28;4349;-67
2022/09/21 06:41:37;;;;;;;;;;;;;;;18.91;51.69;102097.44;5019180;28;4060;-67
2022/09/21 06:44:08;;;;;;;;;;;;;;;18.90;51.75;102092.28;5022343;28;4162;-67
2022/09/21 06:46:34;;;;;;;;;;;;;;;18.90;52.00;102095.16;5018502;28;4059;-67
2022/09/21 06:49:01;;;;;;;;;;;;;;;18.91;51.97;102097.44;5018221;28;4062;-65
2022/09/21 06:51:27;;;;;;;;;;;;;;;18.91;52.17;102093.81;5017354;28;4087;-67
2022/09/21 06:53:54;;;;;;;;;;;;;;;18.92;52.11;102101.06;5019717;28;5228;-67
2022/09/21 06:56:20;;;;;;;;;;;;;;;18.91;52.29;102102.44;5017807;28;5338;-68
2022/09/21 06:58:47;;;;;;;;;;;;;;;18.91;52.23;102106.03;5020170;28;5254;-67
2022/09/21 07:01:13;;;;;;;;;;;;;;;18.90;52.41;102104.53;5015133;28;5216;-67
2022/09/21 07:03:40;;;;;;;;;;;;;;;18.90;52.36;102113.16;5018492;28;4197;-67
2022/09/21 07:06:07;;;;;;;;;;;;;;;18.92;52.47;102118.28;5015528;28;4171;-67
2022/09/21 07:08:34;;;;;;;;;;;;;;;18.91;52.56;102122.53;5019606;28;5329;-67
2022/09/21 07:11:22;;;;;;;;;;;;;;;18.90;52.64;102121.00;5019281;28;4183;-67
2022/09/21 07:13:48;;;;;;;;;;;;;;;18.90;52.64;102123.88;5019372;28;4234;-67
2022/09/21 07:16:15;;;;;;;;;;;;;;;18.90;52.70;102127.50;5018099;28;4202;-67
2022/09/21 07:18:41;;;;;;;;;;;;;;;18.89;52.74;102125.25;5017920;28;4311;-67
2022/09/21 07:21:09;;;;;;;;;;;;;;;18.89;52.82;102130.97;5019112;28;5167;-67
2022/09/21 07:23:35;;;;;;;;;;;;;;;18.91;52.73;102134.00;5019241;28;5578;-67
2022/09/21 07:26:05;;;;;;;;;;;;;;;18.90;52.80;102139.00;5019521;28;4242;-67
2022/09/21 07:28:31;;;;;;;;;;;;;;;18.90;52.87;102126.72;5018800;28;5560;-67
2022/09/21 07:30:58;;;;;;;;;;;;;;;18.93;52.87;102131.28;5013842;28;4236;-67
2022/09/21 07:33:24;;;;;;;;;;;;;;;18.92;52.98;102124.00;5015644;28;5226;-67
2022/09/21 07:35:51;;;;;;;;;;;;;;;18.91;53.07;102134.75;5019143;28;4272;-67
2022/09/21 07:38:18;;;;;;;;;;;;;;;18.91;53.17;102128.25;5018946;28;4457;-67
2022/09/21 07:40:44;;;;;;;;;;;;;;;18.91;53.20;102128.25;5018928;28;5203;-67
2022/09/21 07:43:10;;;;;;;;;;;;;;;18.91;53.32;102136.88;5014385;28;5236;-68
2022/09/21 07:45:37;;;;;;;;;;;;;;;18.90;53.35;102138.22;5018149;28;4239;-67
2022/09/21 07:48:04;;;;;;;;;;;;;;;18.91;53.31;102139.75;5016036;28;4219;-68
2022/09/21 07:50:30;;;;;;;;;;;;;;;18.91;53.42;102134.75;5018817;28;4217;-67
2022/09/21 07:52:57;;;;;;;;;;;;;;;18.91;53.45;102128.25;5022819;28;4170;-67
2022/09/21 07:55:24;;;;;;;;;;;;;;;18.90;53.43;102135.34;5021695;28;4228;-67
2022/09/21 08:00:35;;;;;;;;;;;;;;;18.91;53.47;102134.00;5042862;28;4055;-67
2022/09/21 08:03:02;;;;;;;;;;;;;;;18.89;53.58;102137.47;5041719;28;4199;-67
2022/09/21 08:05:28;;;;;;;;;;;;;;;18.90;53.62;102143.97;5043428;28;4215;-67
2022/09/21 08:07:55;;;;;;;;;;;;;;;18.91;53.73;102140.50;5042347;28;4104;-67
2022/09/21 08:10:22;;;;;;;;;;;;;;;18.91;53.65;102134.00;5043369;28;4299;-67
2022/09/21 08:12:48;;;;;;;;;;;;;;;18.90;53.76;102133.25;5043593;28;5319;-67
2022/09/21 08:15:16;;;;;;;;;;;;;;;18.91;53.88;102139.75;5040462;28;4046;-67
2022/09/21 08:18:06;;;;;;;;;;;;;;;18.91;53.87;102140.50;5039535;28;4229;-66
2022/09/21 08:20:33;;;;;;;;;;;;;;;18.92;53.97;102136.28;5043170;28;4161;-67
2022/09/21 08:22:59;;;;;;;;;;;;;;;18.92;54.00;102141.25;5042331;28;5211;-67
2022/09/21 08:25:26;;;;;;;;;;;;;;;18.92;54.02;102141.25;5042698;28;4299;-67
2022/09/21 08:27:56;;;;;;;;;;;;;;;18.92;54.17;102144.09;5042553;28;4272;-67
2022/09/21 08:30:22;;;;;;;;;;;;;;;18.92;54.17;102139.13;5040853;28;4173;-68
2022/09/21 08:32:48;;;;;;;;;;;;;;;18.93;54.23;102142.75;5040660;28;4134;-67
2022/09/21 08:35:17;;;;;;;;;;;;;;;18.92;54.31;102138.38;5038640;28;4194;-67
2022/09/21 08:37:44;;;;;;;;;;;;;;;18.91;54.43;102134.75;5042739;28;5190;-67
2022/09/21 08:40:10;;;;;;;;;;;;;;;18.91;54.49;102139.75;5041729;28;5308;-67
2022/09/21 08:42:41;;;;;;;;;;;;;;;18.92;54.54;102124.78;5041437;28;4227;-67
2022/09/21 08:45:12;;;;;;;;;;;;;;;18.92;54.54;102136.28;5054808;28;4301;-67
2022/09/21 08:47:42;;;;;;;;;;;;;;;18.94;54.62;102132.78;5042009;28;4234;-67
2022/09/21 08:50:14;;;;;;;;;;;;;;;18.94;54.69;102144.25;5056687;28;4203;-67
2022/09/21 08:52:41;;;;;;;;;;;;;;;18.94;54.60;102135.66;5042376;28;4119;-67
2022/09/21 08:55:18;;;;;;;;;;;;;;;18.94;54.73;102141.38;5039300;28;4127;-67
2022/09/21 08:57:44;;;;;;;;;;;;;;;18.94;54.83;102138.50;5041685;28;4036;-67
2022/09/21 09:00:14;;;;;;;;;;;;;;;18.94;54.87;102145.00;5038292;28;4140;-67
2022/09/21 09:02:48;;;;;;;;;;;;;;;18.92;54.94;102147.75;5039999;28;4210;-67
2022/09/21 09:05:47;;;;;;;;;;;;;;;18.93;55.06;102139.88;5057398;28;4241;-67
2022/09/21 09:08:18;;;;;;;;;;;;;;;18.94;55.09;102144.25;5025979;28;5050;-68
2022/09/21 09:10:51;;;;;;;;;;;;;;;18.93;55.11;102143.50;5056947;28;4339;-67
2022/09/21 09:13:35;;;;;;;;;;;;;;;18.94;55.22;102139.25;5055597;28;4158;-67
2022/09/21 09:16:21;;;;;;;;;;;;;;;18.94;55.11;102145.00;5039932;28;5249;-67
2022/09/21 09:18:51;;;;;;;;;;;;;;;18.93;55.28;102132.03;5041554;28;4288;-67
2022/09/21 09:21:22;;;;;;;;;;;;;;;18.93;55.33;102137.03;5040273;28;4385;-67
2022/09/21 09:23:59;;;;;;;;;;;;;;;18.95;55.31;102134.31;5039875;28;3957;-67
2022/09/21 09:26:41;;;;;;;;;;;;;;;18.94;55.38;102138.50;5055230;28;5215;-67
2022/09/21 09:29:11;;;;;;;;;;;;;;;18.96;55.37;102138.66;5054989;28;5403;-67
2022/09/21 09:31:38;;;;;;;;;;;;;;;18.94;55.44;102139.25;5041502;28;4133;-67
2022/09/21 09:34:07;;;;;;;;;;;;;;;18.94;55.48;102138.50;5051462;28;4179;-67
2022/09/21 09:36:33;;;;;;;;;;;;;;;18.95;55.50;102137.91;5041641;28;4210;-67
2022/09/21 09:39:19;;;;;;;;;;;;;;;18.94;55.61;102147.88;5053915;28;4396;-68
2022/09/21 09:41:55;;;;;;;;;;;;;;;18.96;55.54;102147.28;5040479;28;5101;-67
2022/09/21 09:44:27;;;;;;;;;;;;;;;18.95;55.54;102145.78;5040799;28;4163;-68
2022/09/21 09:46:57;;;;;;;;;;;;;;;18.94;55.73;102147.88;5039833;28;4106;-68
2022/09/21 09:49:28;;;;;;;;;;;;;;;18.96;55.61;102148.03;5053174;28;5263;-68
2022/09/21 09:51:54;;;;;;;;;;;;;;;18.97;55.54;102145.94;5052633;28;4203;-67
2022/09/21 09:54:21;;;;;;;;;;;;;;;18.97;55.71;102148.81;5039259;28;4189;-67
2022/09/21 09:56:48;;;;;;;;;;;;;;;18.97;55.60;102151.69;5039490;28;4225;-67
2022/09/21 09:59:27;;;;;;;;;;;;;;;18.96;55.60;102138.66;5039677;28;5313;-66
2022/09/21 10:01:58;;;;;;;;;;;;;;;18.97;55.72;102134.44;5050265;28;4201;-66
2022/09/21 10:04:24;;;;;;;;;;;;;;;18.97;55.80;102143.81;5041129;28;5336;-66
2022/09/21 10:06:50;;;;;;;;;;;;;;;18.93;55.95;102137.75;5038995;28;4170;-67
2022/09/21 10:09:18;;;;;;;;;;;;;;;18.96;55.83;102142.28;5038551;28;4136;-66
2022/09/21 10:11:44;;;;;;;;;;;;;;;18.94;55.92;102138.50;5039893;28;4107;-66
2022/09/21 10:14:13;;;;;;;;;;;;;;;18.96;55.91;102130.06;5049968;28;4214;-66
2022/09/21 10:16:39;;;;;;;;;;;;;;;18.95;55.93;102140.03;5040961;28;4055;-66
2022/09/21 10:19:10;;;;;;;;;;;;;;;18.96;55.78;102141.53;5038180;28;4170;-66
2022/09/21 10:21:36;;;;;;;;;;;;;;;18.95;55.93;102134.31;5045987;28;5304;-67
2022/09/21 10:24:06;;;;;;;;;;;;;;;18.97;55.82;102143.06;5054585;28;5300;-66
2022/09/21 10:26:37;;;;;;;;;;;;;;;18.95;55.91;102128.56;5038689;28;4195;-66
2022/09/21 10:29:16;;;;;;;;;;;;;;;18.99;55.76;102141.09;5039326;28;4216;-66
2022/09/21 10:31:52;;;;;;;;;;;;;;;18.97;55.90;102137.31;5040440;28;4284;-67
2022/09/21 10:34:18;;;;;;;;;;;;;;;18.97;56.03;102137.31;5037275;28;5258;-66
2022/09/21 10:36:51;;;;;;;;;;;;;;;18.98;55.82;102136.69;5040191;28;5094;-66
2022/09/21 10:39:22;;;;;;;;;;;;;;;18.98;55.82;102133.06;5039070;28;5320;-67
2022/09/21 10:42:03;;;;;;;;;;;;;;;18.97;55.93;102135.19;5039095;28;4214;-67
2022/09/21 10:44:37;;;;;;;;;;;;;;;18.97;55.86;102125.84;5052834;28;5424;-67
2022/09/21 10:47:13;;;;;;;;;;;;;;;18.98;55.84;102130.19;5039599;28;4169;-66
2022/09/21 10:49:43;;;;;;;;;;;;;;;18.94;56.00;102127.03;5039298;28;4151;-67
2022/09/21 10:52:09;;;;;;;;;;;;;;;18.99;55.93;102120.25;5037731;28;4066;-66
2022/09/21 10:54:35;;;;;;;;;;;;;;;18.98;55.87;102118.72;5045573;28;4203;-67
2022/09/21 10:57:02;;;;;;;;;;;;;;;18.96;56.01;102118.56;5038039;28;4218;-66
2022/09/21 10:59:30;;;;;;;;;;;;;;;18.97;55.99;102122.97;5039523;28;4156;-66
2022/09/21 11:01:56;;;;;;;;;;;;;;;18.98;55.91;102113.72;5037174;28;5187;-67
2022/09/21 11:04:26;;;;;;;;;;;;;;;18.97;56.00;102115.09;5038930;28;4201;-66
2022/09/21 11:06:53;;;;;;;;;;;;;;;18.98;55.90;102108.00;5039697;28;4212;-66
2022/09/21 11:09:27;;;;;;;;;;;;;;;18.95;56.09;102106.34;5034328;28;5618;-67
2022/09/21 11:12:03;;;;;;;;;;;;;;;19.02;55.85;102110.41;5054126;28;4197;-68
2022/09/21 11:14:34;;;;;;;;;;;;;;;18.99;56.00;102112.38;5039410;28;4856;-68
2022/09/21 11:17:08;;;;;;;;;;;;;;;18.98;56.22;102110.13;5053085;28;4222;-68
2022/09/21 11:19:53;;;;;;;;;;;;;;;18.98;56.04;102118.72;5050606;28;4208;-66
2022/09/21 11:22:23;;;;;;;;;;;;;;;18.98;56.25;102110.84;5032253;28;4226;-67
2022/09/21 11:25:08;;;;;;;;;;;;;;;18.98;56.27;102110.84;5016889;28;4231;-66
2022/09/21 11:27:39;;;;;;;;;;;;;;;19.04;56.22;102104.81;5038510;28;4219;-66
2022/09/21 11:30:06;;;;;;;;;;;;;;;19.04;56.70;102096.94;5035507;28;4183;-66
2022/09/21 11:32:54;;;;;;;;;;;;;;;19.06;56.97;102099.22;5036099;28;4110;-66
2022/09/21 11:35:21;;;;;;;;;;;;;;;19.08;57.10;102101.47;5054007;28;4181;-67
2022/09/21 11:38:00;;;;;;;;;;;;;;;19.13;56.81;102100.41;5040194;28;4201;-67
2022/09/21 11:40:37;;;;;;;;;;;;;;;19.15;56.81;102100.53;5050059;28;4304;-64
2022/09/21 11:43:07;;;;;;;;;;;;;;;19.14;57.33;102108.41;5037687;28;4505;-62
2022/09/21 11:45:42;;;;;;;;;;;;;;;19.14;57.10;102096.91;5053935;28;4007;-67
2022/09/21 11:48:19;;;;;;;;;;;;;;;19.16;57.12;102097.06;5053099;28;5133;-68
2022/09/21 11:50:48;;;;;;;;;;;;;;;19.14;57.69;102099.78;5054490;28;4589;-67
2022/09/21 11:53:24;;;;;;;;;;;;;;;19.17;57.31;102092.06;5038399;28;4493;-67
2022/09/21 11:55:53;;;;;;;;;;;;;;;19.16;57.28;102091.31;5034830;28;4208;-68
2022/09/21 11:58:39;;;;;;;;;;;;;;;19.16;57.33;102091.31;5050267;28;4212;-67
2022/09/21 12:01:08;;;;;;;;;;;;;;;19.17;57.49;102097.81;5038263;28;4211;-67
2022/09/21 12:03:54;;;;;;;;;;;;;;;19.17;57.77;102098.59;5042951;28;4144;-66
2022/09/21 12:06:39;;;;;;;;;;;;;;;19.17;57.94;102098.59;5039460;28;5223;-62
2022/09/21 12:09:12;;;;;;;;;;;;;;;19.23;57.12;102090.38;5035437;28;5227;-72
2022/09/21 12:11:49;;;;;;;;;;;;;;;19.25;57.35;102084.03;5053755;28;4145;-63
2022/09/21 12:14:35;;;;;;;;;;;;;;;19.24;57.31;102091.13;5053265;28;5184;-72
2022/09/21 12:17:20;;;;;;;;;;;;;;;19.27;57.37;102089.19;5038565;28;4137;-70
2022/09/21 12:20:02;;;;;;;;;;;;;;;19.25;57.07;102093.41;5037416;28;4209;-72
2022/09/21 12:22:30;;;;;;;;;;;;;;;19.27;57.27;102087.06;5051539;28;4112;-73
2022/09/21 12:24:58;;;;;;;;;;;;;;;19.24;57.38;102086.16;5049736;28;4513;-72
2022/09/21 12:27:26;;;;;;;;;;;;;;;19.24;57.68;102085.38;5053614;28;4144;-72
2022/09/21 12:29:54;;;;;;;;;;;;;;;19.24;57.39;102080.41;5053137;28;4216;-72
2022/09/21 12:32:22;;;;;;;;;;;;;;;19.24;57.31;102080.41;5053202;28;5327;-71
2022/09/21 12:34:50;;;;;;;;;;;;;;;19.22;57.29;102083.13;5038112;28;4177;-72
2022/09/21 12:37:24;;;;;;;;;;;;;;;19.21;57.60;102075.13;5054153;28;4114;-72
2022/09/21 12:39:53;;;;;;;;;;;;;;;19.19;57.37;102084.34;5056642;28;5144;-73
2022/09/21 12:42:25;;;;;;;;;;;;;;;19.27;57.11;102086.31;5053081;28;5253;-70
2022/09/21 12:44:52;;;;;;;;;;;;;;;19.25;57.42;102086.91;5041559;28;4235;-72
2022/09/21 12:47:37;;;;;;;;;;;;;;;19.23;57.68;102081.75;5056465;28;4402;-72
2022/09/21 12:50:21;;;;;;;;;;;;;;;19.22;57.61;102077.41;5040363;28;4270;-71
2022/09/21 12:52:48;;;;;;;;;;;;;;;19.21;57.66;102081.63;5056388;28;5206;-72
2022/09/21 12:55:24;;;;;;;;;;;;;;;19.20;57.69;102080.13;5040103;28;4290;-72
2022/09/21 12:57:53;;;;;;;;;;;;;;;19.21;57.68;102075.13;5038170;28;4016;-72
2022/09/21 13:00:41;;;;;;;;;;;;;;;19.24;57.58;102077.53;5042323;28;5208;-72
2022/09/21 13:03:25;;;;;;;;;;;;;;;19.32;57.28;102074.47;5056802;28;5204;-71